createdAt,value
2023-02-19T00:01:14.834Z,2.60
2023-02-19T00:03:41.355Z,2.67
2023-02-19T00:06:10.532Z,2.22
2023-02-19T00:08:37.634Z,1.88
2023-02-19T00:11:04.604Z,2.03
2023-02-19T00:13:31.056Z,3.03
2023-02-19T00:15:57.462Z,2.25
2023-02-19T00:18:24.104Z,2.13
2023-02-19T00:20:50.504Z,2.05
2023-02-19T00:23:16.939Z,2.80
2023-02-19T00:25:43.364Z,2.50
2023-02-19T00:28:09.772Z,2.42
2023-02-19T00:30:36.151Z,3.13
2023-02-19T00:33:02.590Z,2.83
2023-02-19T00:35:28.972Z,2.40
2023-02-19T00:37:55.369Z,3.17
2023-02-19T00:40:21.763Z,3.35
2023-02-19T00:42:48.211Z,3.47
2023-02-19T00:45:14.615Z,3.67
2023-02-19T00:47:41.028Z,3.67
2023-02-19T00:50:07.495Z,4.13
2023-02-19T00:52:33.901Z,4.28
2023-02-19T00:55:00.297Z,4.30
2023-02-19T00:57:26.708Z,4.63
2023-02-19T00:59:53.094Z,5.22
2023-02-19T01:02:19.513Z,4.97
2023-02-19T01:04:45.973Z,5.80
2023-02-19T01:07:12.401Z,5.95
2023-02-19T01:09:38.857Z,4.70
2023-02-19T01:12:05.954Z,5.45
2023-02-19T01:14:32.717Z,4.50
2023-02-19T01:16:59.124Z,5.22
2023-02-19T01:19:25.602Z,6.45
2023-02-19T01:21:52.010Z,4.95
2023-02-19T01:24:18.422Z,4.72
2023-02-19T01:26:44.800Z,4.97
2023-02-19T01:29:11.218Z,4.28
2023-02-19T01:31:38.732Z,3.75
2023-02-19T01:34:05.193Z,4.43
2023-02-19T01:36:32.837Z,5.00
2023-02-19T01:39:02.997Z,5.03
2023-02-19T01:41:29.431Z,4.85
2023-02-19T01:44:04.274Z,4.50
2023-02-19T01:46:31.790Z,3.40
2023-02-19T01:49:14.000Z,3.17
2023-02-19T01:51:49.050Z,3.50
2023-02-19T01:54:16.415Z,3.05
2023-02-19T01:56:43.092Z,2.63
2023-02-19T01:59:09.526Z,2.22
2023-02-19T02:01:39.193Z,2.08
2023-02-19T02:04:05.933Z,1.70
2023-02-19T02:06:35.584Z,1.48
2023-02-19T02:09:01.985Z,1.77
2023-02-19T02:11:28.399Z,1.38
2023-02-19T02:13:54.785Z,1.50
2023-02-19T02:16:29.333Z,1.27
2023-02-19T02:18:55.635Z,1.50
2023-02-19T02:21:40.213Z,1.15
2023-02-19T02:24:31.506Z,1.30
2023-02-19T02:27:22.119Z,1.65
2023-02-19T02:30:06.802Z,1.55
2023-02-19T02:32:35.420Z,1.35
2023-02-19T02:35:05.801Z,1.33
2023-02-19T02:37:34.104Z,1.40
2023-02-19T02:40:00.484Z,1.50
2023-02-19T02:42:26.930Z,1.05
2023-02-19T02:44:53.987Z,1.30
2023-02-19T02:47:20.416Z,1.00
2023-02-19T02:49:46.835Z,1.00
2023-02-19T02:52:13.222Z,1.52
2023-02-19T02:54:39.641Z,1.30
2023-02-19T02:57:06.032Z,0.90
2023-02-19T02:59:34.212Z,1.27
2023-02-19T03:02:09.551Z,1.15
2023-02-19T03:05:00.410Z,1.27
2023-02-19T03:07:27.858Z,1.05
2023-02-19T03:09:54.279Z,1.38
2023-02-19T03:12:20.664Z,1.00
2023-02-19T03:14:49.185Z,1.20
2023-02-19T03:17:18.863Z,1.23
2023-02-19T03:19:47.483Z,1.58
2023-02-19T03:22:17.666Z,1.42
2023-02-19T03:24:56.433Z,1.10
2023-02-19T03:27:22.829Z,1.40
2023-02-19T03:29:49.272Z,1.55
2023-02-19T03:32:46.387Z,1.33
2023-02-19T03:35:23.502Z,1.45
2023-02-19T03:37:52.807Z,1.35
2023-02-19T03:40:19.233Z,1.17
2023-02-19T03:42:56.356Z,1.33
2023-02-19T03:45:31.857Z,1.08
2023-02-19T03:48:18.334Z,1.60
2023-02-19T03:50:50.682Z,1.55
2023-02-19T03:53:46.326Z,1.52
2023-02-19T03:56:33.422Z,1.05
2023-02-19T03:59:10.311Z,1.58
2023-02-19T04:01:43.984Z,1.48
2023-02-19T04:04:18.297Z,1.88
2023-02-19T04:06:45.256Z,1.60
2023-02-19T04:09:11.685Z,1.88
2023-02-19T04:11:38.097Z,1.95
2023-02-19T04:14:26.138Z,1.25
2023-02-19T04:16:56.483Z,1.52
2023-02-19T04:19:23.730Z,1.70
2023-02-19T04:21:50.131Z,1.35
2023-02-19T04:24:29.446Z,1.67
2023-02-19T04:26:55.823Z,1.10
2023-02-19T04:29:22.221Z,1.02
2023-02-19T04:31:48.651Z,1.60
2023-02-19T04:34:15.078Z,1.30
2023-02-19T04:36:41.512Z,1.00
2023-02-19T04:39:07.925Z,1.42
2023-02-19T04:41:34.328Z,1.35
2023-02-19T04:44:00.716Z,1.48
2023-02-19T04:46:27.296Z,1.30
2023-02-19T04:48:53.802Z,1.40
2023-02-19T04:51:20.207Z,1.13
2023-02-19T04:53:46.598Z,1.05
2023-02-19T04:56:14.154Z,1.35
2023-02-19T04:58:41.129Z,1.65
2023-02-19T05:01:07.604Z,1.05
2023-02-19T05:03:34.031Z,1.65
2023-02-19T05:06:04.351Z,1.50
2023-02-19T05:08:30.759Z,1.00
2023-02-19T05:10:58.486Z,1.65
2023-02-19T05:13:24.971Z,1.13
2023-02-19T05:15:55.956Z,1.05
2023-02-19T05:18:22.369Z,1.52
2023-02-19T05:20:49.837Z,1.20
2023-02-19T05:23:16.234Z,1.17
2023-02-19T05:25:42.630Z,1.48
2023-02-19T05:28:09.054Z,1.17
2023-02-19T05:30:35.521Z,1.27
2023-02-19T05:33:01.985Z,1.20
2023-02-19T05:35:28.366Z,1.10
2023-02-19T05:37:54.784Z,1.17
2023-02-19T05:40:21.161Z,1.10
2023-02-19T05:42:47.573Z,1.45
2023-02-19T05:45:13.954Z,2.15
2023-02-19T05:47:40.350Z,2.13
2023-02-19T05:50:06.875Z,1.40
2023-02-19T05:52:33.286Z,1.23
2023-02-19T05:54:59.669Z,1.55
2023-02-19T05:57:26.073Z,1.45
2023-02-19T05:59:52.453Z,1.27
2023-02-19T06:02:18.849Z,1.52
2023-02-19T06:04:45.243Z,1.45
2023-02-19T06:07:11.634Z,1.60
2023-02-19T06:09:38.039Z,1.30
2023-02-19T06:12:04.645Z,1.38
2023-02-19T06:14:31.033Z,1.42
2023-02-19T06:16:57.421Z,2.05
2023-02-19T06:19:23.814Z,1.33
2023-02-19T06:21:50.549Z,1.27
2023-02-19T06:24:16.988Z,1.35
2023-02-19T06:26:43.385Z,1.45
2023-02-19T06:29:09.813Z,1.40
2023-02-19T06:31:36.324Z,1.05
2023-02-19T06:34:05.793Z,1.40
2023-02-19T06:36:32.279Z,1.05
2023-02-19T06:39:02.450Z,1.50
2023-02-19T06:41:28.885Z,1.30
2023-02-19T06:43:56.597Z,1.35
2023-02-19T06:46:23.056Z,1.40
2023-02-19T06:48:49.487Z,1.80
2023-02-19T06:51:17.090Z,1.80
2023-02-19T06:53:43.515Z,1.92
2023-02-19T06:56:27.139Z,2.17
2023-02-19T06:58:54.504Z,1.83
2023-02-19T07:01:21.532Z,2.22
2023-02-19T07:03:47.973Z,2.55
2023-02-19T07:06:14.410Z,2.55
2023-02-19T07:08:40.810Z,2.70
2023-02-19T07:11:07.214Z,2.65
2023-02-19T07:13:33.744Z,3.08
2023-02-19T07:16:07.544Z,3.05
2023-02-19T07:18:34.105Z,2.85
2023-02-19T07:21:08.394Z,2.90
2023-02-19T07:23:35.056Z,2.47
2023-02-19T07:26:01.450Z,2.75
2023-02-19T07:28:27.842Z,3.22
2023-02-19T07:30:54.359Z,2.90
2023-02-19T07:33:26.486Z,2.75
2023-02-19T07:35:52.925Z,2.92
2023-02-19T07:38:20.288Z,2.55
2023-02-19T07:40:53.554Z,2.78
2023-02-19T07:43:19.936Z,3.47
2023-02-19T07:45:46.347Z,2.17
2023-02-19T07:48:12.764Z,1.80
2023-02-19T07:50:39.170Z,2.70
2023-02-19T07:53:05.593Z,2.60
2023-02-19T07:55:32.717Z,2.25
2023-02-19T07:57:59.670Z,2.20
2023-02-19T08:00:26.979Z,2.05
2023-02-19T08:02:53.753Z,1.92
2023-02-19T08:05:20.173Z,2.38
2023-02-19T08:07:46.545Z,2.55
2023-02-19T08:10:12.969Z,1.95
2023-02-19T08:12:39.355Z,1.83
2023-02-19T08:15:05.914Z,1.70
2023-02-19T08:17:32.292Z,1.80
2023-02-19T08:19:58.678Z,2.30
2023-02-19T08:22:25.099Z,2.53
2023-02-19T08:24:51.494Z,1.83
2023-02-19T08:27:17.896Z,2.30
2023-02-19T08:29:44.301Z,1.27
2023-02-19T08:32:10.764Z,2.00
2023-02-19T08:34:37.245Z,1.50
2023-02-19T08:37:03.654Z,1.40
2023-02-19T08:39:30.047Z,1.30
2023-02-19T08:41:56.461Z,1.08
2023-02-19T08:44:22.861Z,1.15
2023-02-19T08:46:49.327Z,1.45
2023-02-19T08:49:15.738Z,1.02
2023-02-19T08:51:42.161Z,1.67
2023-02-19T08:54:08.599Z,1.48
2023-02-19T08:56:35.025Z,0.95
2023-02-19T08:59:01.423Z,1.00
2023-02-19T09:01:27.872Z,1.00
2023-02-19T09:03:54.358Z,1.15
2023-02-19T09:06:20.895Z,1.58
2023-02-19T09:08:47.324Z,0.70
2023-02-19T09:11:14.176Z,1.05
2023-02-19T09:13:40.905Z,0.85
2023-02-19T09:16:07.479Z,0.70
2023-02-19T09:18:33.933Z,0.50
2023-02-19T09:21:01.399Z,0.70
2023-02-19T09:23:28.043Z,0.73
2023-02-19T09:25:58.817Z,0.47
2023-02-19T09:28:25.572Z,0.80
2023-02-19T09:30:52.044Z,0.73
2023-02-19T09:33:18.440Z,0.70
2023-02-19T09:35:44.868Z,0.45
2023-02-19T09:38:11.273Z,0.50
2023-02-19T09:40:38.458Z,0.60
2023-02-19T09:43:09.106Z,0.70
2023-02-19T09:45:35.526Z,0.70
2023-02-19T09:48:01.915Z,0.98
2023-02-19T09:50:34.384Z,0.43
2023-02-19T09:53:02.874Z,0.82
2023-02-19T09:55:34.787Z,1.08
2023-02-19T09:58:03.149Z,0.63
2023-02-19T10:00:30.521Z,0.85
2023-02-19T10:03:05.267Z,0.75
2023-02-19T10:05:32.232Z,0.75
2023-02-19T10:07:58.652Z,0.88
2023-02-19T10:10:29.156Z,0.77
2023-02-19T10:12:57.008Z,0.30
2023-02-19T10:15:34.917Z,0.40
2023-02-19T10:18:01.339Z,0.93
2023-02-19T10:20:27.735Z,0.50
2023-02-19T10:23:04.682Z,0.30
2023-02-19T10:25:31.577Z,0.50
2023-02-19T10:27:58.899Z,0.60
2023-02-19T10:30:28.571Z,0.55
2023-02-19T10:33:11.021Z,0.50
2023-02-19T10:35:38.972Z,0.65
2023-02-19T10:38:05.467Z,0.50
2023-02-19T10:40:31.872Z,0.60
2023-02-19T10:43:02.134Z,0.43
2023-02-19T10:45:47.639Z,0.40
2023-02-19T10:48:29.636Z,0.43
2023-02-19T10:50:58.288Z,0.52
2023-02-19T10:53:44.669Z,0.30
2023-02-19T10:56:25.157Z,0.50
2023-02-19T10:58:51.577Z,0.88
2023-02-19T11:01:22.678Z,0.80
2023-02-19T11:03:50.567Z,0.50
2023-02-19T11:06:18.569Z,0.82
2023-02-19T11:08:57.724Z,0.77
2023-02-19T11:11:26.765Z,1.02
2023-02-19T11:13:54.526Z,0.93
2023-02-19T11:16:20.940Z,0.60
2023-02-19T11:18:56.892Z,0.82
2023-02-19T11:21:28.548Z,0.50
2023-02-19T11:23:54.931Z,0.55
2023-02-19T11:26:25.611Z,0.80
2023-02-19T11:29:02.487Z,0.95
2023-02-19T11:31:31.145Z,0.82
2023-02-19T11:34:15.880Z,0.60
2023-02-19T11:36:42.348Z,0.57
2023-02-19T11:39:17.611Z,0.50
2023-02-19T11:41:56.565Z,0.70
2023-02-19T11:44:53.843Z,0.70
2023-02-19T11:47:50.956Z,0.82
2023-02-19T11:50:20.185Z,0.73
2023-02-19T11:52:56.317Z,0.85
2023-02-19T11:55:45.326Z,0.57
2023-02-19T11:58:23.795Z,0.63
2023-02-19T12:00:55.706Z,0.50
2023-02-19T12:03:34.605Z,4.80
2023-02-19T12:06:28.738Z,0.85
2023-02-19T12:09:22.027Z,0.55
2023-02-19T12:12:14.404Z,0.70
2023-02-19T12:14:46.697Z,0.57
2023-02-19T12:17:22.005Z,0.47
2023-02-19T12:19:57.804Z,0.47
2023-02-19T12:22:28.667Z,0.47
2023-02-19T12:25:01.178Z,0.52
2023-02-19T12:27:52.288Z,0.28
2023-02-19T12:31:00.152Z,0.47
2023-02-19T12:34:03.194Z,0.38
2023-02-19T12:36:52.570Z,0.38
2023-02-19T12:39:25.831Z,0.77
2023-02-19T12:42:11.545Z,0.40
2023-02-19T12:44:42.572Z,0.55
2023-02-19T12:47:13.117Z,0.50
2023-02-19T12:49:41.496Z,0.22
2023-02-19T12:52:26.926Z,0.40
2023-02-19T12:54:58.985Z,0.77
2023-02-19T12:57:27.438Z,0.82
2023-02-19T12:59:55.116Z,0.50
2023-02-19T13:02:29.843Z,0.60
2023-02-19T13:05:01.942Z,0.95
2023-02-19T13:07:42.849Z,0.43
2023-02-19T13:10:31.190Z,0.50
2023-02-19T13:12:59.048Z,0.50
2023-02-19T13:15:33.837Z,0.38
2023-02-19T13:18:01.568Z,0.55
2023-02-19T13:20:32.411Z,0.63
2023-02-19T13:23:22.057Z,0.60
2023-02-19T13:26:08.993Z,0.40
2023-02-19T13:28:47.363Z,0.60
2023-02-19T13:31:42.068Z,0.30
2023-02-19T13:34:17.301Z,0.30
2023-02-19T13:36:43.704Z,0.28
2023-02-19T13:44:28.924Z,0.45
2023-02-19T13:46:58.457Z,0.77
2023-02-19T13:49:27.822Z,0.30
2023-02-19T13:51:57.713Z,0.50
2023-02-19T13:54:34.104Z,0.43
2023-02-19T13:57:21.710Z,0.63
2023-02-19T13:59:48.414Z,0.45
2023-02-19T14:02:20.793Z,0.30
2023-02-19T14:05:08.242Z,0.50
2023-02-19T14:07:41.561Z,0.50
2023-02-19T14:10:12.495Z,0.52
2023-02-19T14:12:38.935Z,0.60
2023-02-19T14:15:36.303Z,0.40
2023-02-19T14:18:02.737Z,0.40
2023-02-19T14:20:43.050Z,0.57
2023-02-19T14:23:22.671Z,0.60
2023-02-19T14:25:52.533Z,0.70
2023-02-19T14:28:21.411Z,0.80
2023-02-19T14:30:52.019Z,0.60
2023-02-19T14:33:27.830Z,0.30
2023-02-19T14:36:18.875Z,0.47
2023-02-19T14:38:52.292Z,0.70
2023-02-19T14:41:18.670Z,0.80
2023-02-19T14:43:45.706Z,1.50
2023-02-19T14:46:22.395Z,1.65
2023-02-19T14:48:49.328Z,0.50
2023-02-19T14:51:30.997Z,0.60
2023-02-19T14:53:57.436Z,0.40
2023-02-19T14:56:30.169Z,0.40
2023-02-19T14:59:26.649Z,0.85
2023-02-19T15:02:12.538Z,0.32
2023-02-19T15:04:38.947Z,0.38
2023-02-19T15:07:10.058Z,0.50
2023-02-19T15:09:41.334Z,0.40
2023-02-19T15:12:07.769Z,0.38
2023-02-19T15:14:34.181Z,0.70
2023-02-19T15:17:02.294Z,0.50
2023-02-19T15:19:29.366Z,0.40
2023-02-19T15:21:55.794Z,0.50
2023-02-19T15:24:22.197Z,0.50
2023-02-19T15:26:50.335Z,0.50
2023-02-19T15:29:18.702Z,0.40
2023-02-19T15:31:49.607Z,0.32
2023-02-19T15:34:28.475Z,0.40
2023-02-19T15:37:05.359Z,0.70
2023-02-19T15:39:37.802Z,0.57
2023-02-19T15:42:04.856Z,0.95
2023-02-19T15:44:31.132Z,0.70
2023-02-19T15:46:57.553Z,0.50
2023-02-19T15:49:26.333Z,1.23
2023-02-19T15:52:02.133Z,1.02
2023-02-19T15:54:31.400Z,0.88
2023-02-19T15:56:59.358Z,0.90
2023-02-19T15:59:31.044Z,0.75
2023-02-19T16:01:57.483Z,0.60
2023-02-19T16:04:23.918Z,1.08
2023-02-19T16:06:52.362Z,0.73
2023-02-19T16:09:20.471Z,0.40
2023-02-19T16:11:51.549Z,0.55
2023-02-19T16:14:36.974Z,0.70
2023-02-19T16:17:06.053Z,0.73
2023-02-19T16:19:36.304Z,0.40
2023-02-19T16:22:02.683Z,0.75
2023-02-19T16:24:36.084Z,0.60
2023-02-19T16:27:02.968Z,0.40
2023-02-19T16:29:31.381Z,0.52
2023-02-19T16:32:02.664Z,0.60
2023-02-19T16:34:48.549Z,0.45
2023-02-19T16:37:36.960Z,0.30
2023-02-19T16:40:09.028Z,0.80
2023-02-19T16:42:44.602Z,1.08
2023-02-19T16:45:10.991Z,0.82
2023-02-19T16:47:37.728Z,0.70
2023-02-19T16:50:07.315Z,1.17
2023-02-19T16:52:33.728Z,1.10
2023-02-19T16:55:00.357Z,1.08
2023-02-19T16:57:27.230Z,0.70
2023-02-19T16:59:53.723Z,0.50
2023-02-19T17:02:20.890Z,0.70
2023-02-19T17:04:47.536Z,0.70
2023-02-19T17:07:17.195Z,0.73
2023-02-19T17:09:43.620Z,0.68
2023-02-19T17:12:14.538Z,0.70
2023-02-19T17:14:41.056Z,1.05
2023-02-19T17:17:07.504Z,1.15
2023-02-19T17:19:33.936Z,0.88
2023-02-19T17:22:00.327Z,0.90
2023-02-19T17:24:26.750Z,1.00
2023-02-19T17:26:53.148Z,1.00
2023-02-19T17:29:19.571Z,1.08
2023-02-19T17:31:46.051Z,0.73
2023-02-19T17:34:12.480Z,0.90
2023-02-19T17:36:38.873Z,0.70
2023-02-19T17:39:05.518Z,0.88
2023-02-19T17:41:31.933Z,1.25
2023-02-19T17:43:58.346Z,0.82
2023-02-19T17:46:25.714Z,0.82
2023-02-19T17:48:52.329Z,0.50
2023-02-19T17:51:18.722Z,0.85
2023-02-19T17:53:45.097Z,0.68
2023-02-19T17:56:15.064Z,0.70
2023-02-19T17:58:41.531Z,0.60
2023-02-19T18:01:08.179Z,0.90
2023-02-19T18:03:34.645Z,0.60
2023-02-19T18:06:05.612Z,0.70
2023-02-19T18:08:32.125Z,0.88
2023-02-19T18:10:58.800Z,0.93
2023-02-19T18:13:25.429Z,0.90
2023-02-19T18:15:51.983Z,0.60
2023-02-19T18:18:18.409Z,1.10
2023-02-19T18:20:44.807Z,0.98
2023-02-19T18:23:11.183Z,1.10
2023-02-19T18:25:37.596Z,1.10
2023-02-19T18:28:04.231Z,1.05
2023-02-19T18:30:30.818Z,0.85
2023-02-19T18:32:57.427Z,0.75
2023-02-19T18:35:23.849Z,0.75
2023-02-19T18:37:51.342Z,1.20
2023-02-19T18:40:18.354Z,0.90
2023-02-19T18:42:44.737Z,0.90
2023-02-19T18:45:11.410Z,0.60
2023-02-19T18:47:38.939Z,1.15
2023-02-19T18:50:05.950Z,0.68
2023-02-19T18:52:33.808Z,0.77
2023-02-19T18:55:01.592Z,0.80
2023-02-19T18:57:29.183Z,0.90
2023-02-19T18:59:57.220Z,0.70
2023-02-19T19:02:24.282Z,1.35
2023-02-19T19:04:51.414Z,0.90
2023-02-19T19:07:18.275Z,1.00
2023-02-19T19:09:47.252Z,1.00
2023-02-19T19:12:14.339Z,1.30
2023-02-19T19:14:40.748Z,1.05
2023-02-19T19:17:07.156Z,0.85
2023-02-19T19:19:33.737Z,1.20
2023-02-19T19:22:00.251Z,1.27
2023-02-19T19:24:26.683Z,1.58
2023-02-19T19:26:53.077Z,1.80
2023-02-19T19:29:20.574Z,1.45
2023-02-19T19:31:47.197Z,1.60
2023-02-19T19:34:13.885Z,1.48
2023-02-19T19:36:40.352Z,1.58
2023-02-19T19:39:06.867Z,1.55
2023-02-19T19:41:33.395Z,1.50
2023-02-19T19:44:03.302Z,1.35
2023-02-19T19:48:56.031Z,1.42
2023-02-19T19:51:22.466Z,1.55
2023-02-19T19:53:49.041Z,1.30
2023-02-19T19:56:16.225Z,1.35
2023-02-19T19:58:42.611Z,1.70
2023-02-19T20:01:09.129Z,1.80
2023-02-19T20:03:35.537Z,1.45
2023-02-19T20:06:01.972Z,2.00
2023-02-19T20:08:28.385Z,2.10
2023-02-19T20:10:54.819Z,1.88
2023-02-19T20:13:21.530Z,1.30
2023-02-19T20:15:47.984Z,1.48
2023-02-19T20:18:14.415Z,1.45
2023-02-19T20:20:40.811Z,1.80
2023-02-19T20:23:07.222Z,1.70
2023-02-19T20:25:33.609Z,1.70
2023-02-19T20:28:00.081Z,1.45
2023-02-19T20:30:26.566Z,1.88
2023-02-19T20:32:53.032Z,1.00
2023-02-19T20:35:21.062Z,1.00
2023-02-19T20:37:47.473Z,1.10
2023-02-19T20:40:15.199Z,1.20
2023-02-19T20:42:41.622Z,1.20
2023-02-19T20:45:08.450Z,1.35
2023-02-19T20:47:34.865Z,0.90
2023-02-19T20:50:01.248Z,1.15
2023-02-19T20:52:27.669Z,1.10
2023-02-19T20:54:55.135Z,0.82
2023-02-19T20:57:21.684Z,1.00
2023-02-19T20:59:48.123Z,0.98
2023-02-19T21:02:19.767Z,1.10
2023-02-19T21:04:46.152Z,1.30
2023-02-19T21:07:12.583Z,1.27
2023-02-19T21:09:38.986Z,1.67
2023-02-19T21:12:05.534Z,1.13
2023-02-19T21:14:31.981Z,1.35
2023-02-19T21:16:58.409Z,1.40
2023-02-19T21:19:24.803Z,1.63
2023-02-19T21:21:51.232Z,1.48
2023-02-19T21:24:17.633Z,0.95
2023-02-19T21:26:44.041Z,1.52
2023-02-19T21:29:13.847Z,1.05
2023-02-19T21:31:44.591Z,1.25
2023-02-19T21:34:12.133Z,0.77
2023-02-19T21:36:38.565Z,0.85
2023-02-19T21:39:05.596Z,1.15
2023-02-19T21:41:31.999Z,0.77
2023-02-19T21:43:58.408Z,1.10
2023-02-19T21:46:24.967Z,1.00
2023-02-19T21:48:52.111Z,1.40
2023-02-19T21:51:18.826Z,1.00
2023-02-19T21:53:45.240Z,1.00
2023-02-19T21:56:12.370Z,0.75
2023-02-19T21:58:38.998Z,0.60
2023-02-19T22:01:05.467Z,0.80
2023-02-19T22:03:31.876Z,0.80
2023-02-19T22:06:00.768Z,0.60
2023-02-19T22:08:27.154Z,0.95
2023-02-19T22:10:53.555Z,0.90
2023-02-19T22:13:19.928Z,1.20
2023-02-19T22:15:46.346Z,1.00
2023-02-19T22:18:12.732Z,0.82
2023-02-19T22:20:39.199Z,1.17
2023-02-19T22:23:06.037Z,1.00
2023-02-19T22:25:32.454Z,1.15
2023-02-19T22:28:00.154Z,1.30
2023-02-19T22:30:26.786Z,1.10
2023-02-19T22:32:53.213Z,1.00
2023-02-19T22:35:19.605Z,1.00
2023-02-19T22:37:46.019Z,1.52
2023-02-19T22:40:12.673Z,1.20
2023-02-19T22:42:39.082Z,0.90
2023-02-19T22:45:06.129Z,1.10
2023-02-19T22:47:32.545Z,1.00
2023-02-19T22:49:58.945Z,1.00
2023-02-19T22:52:25.333Z,0.63
2023-02-19T22:54:52.342Z,0.90
2023-02-19T22:57:18.784Z,1.00
2023-02-19T22:59:45.218Z,0.90
2023-02-19T23:02:11.659Z,1.05
2023-02-19T23:04:38.117Z,0.73
2023-02-19T23:07:07.280Z,1.10
2023-02-19T23:09:33.711Z,0.75
2023-02-19T23:12:05.052Z,0.90
2023-02-19T23:14:31.515Z,1.17
2023-02-19T23:16:58.018Z,0.73
2023-02-19T23:19:24.731Z,0.70
2023-02-19T23:21:51.278Z,0.95
2023-02-19T23:24:17.671Z,1.08
2023-02-19T23:26:45.438Z,0.85
2023-02-19T23:29:14.125Z,0.70
2023-02-19T23:31:40.619Z,1.25
2023-02-19T23:34:07.112Z,0.90
2023-02-19T23:36:34.071Z,1.05
2023-02-19T23:39:00.457Z,0.93
2023-02-19T23:41:26.866Z,1.17
2023-02-19T23:43:53.280Z,0.90
2023-02-19T23:46:19.673Z,1.15
2023-02-19T23:48:46.137Z,0.70
2023-02-19T23:51:12.544Z,1.40
2023-02-19T23:53:38.946Z,0.80
2023-02-19T23:56:05.921Z,0.93
2023-02-19T23:58:32.324Z,1.20
